createdAt,value
2022-07-29T00:00:26.260Z,71.67
2022-07-29T00:03:29.639Z,71.53
2022-07-29T00:06:32.471Z,71.10
2022-07-29T00:09:43.080Z,72.18
2022-07-29T00:12:54.888Z,72.76
2022-07-29T00:15:58.547Z,73.04
2022-07-29T00:19:07.890Z,69.29
2022-07-29T00:22:10.944Z,69.85
2022-07-29T00:25:14.186Z,69.98
2022-07-29T00:28:19.748Z,70.72
2022-07-29T00:31:22.501Z,71.26
2022-07-29T00:34:44.081Z,72.13
2022-07-29T00:37:46.795Z,72.59
2022-07-29T00:40:50.188Z,73.67
2022-07-29T00:43:52.862Z,73.86
2022-07-29T00:46:55.867Z,73.90
2022-07-29T00:49:58.657Z,73.50
2022-07-29T00:53:03.432Z,73.93
2022-07-29T00:56:06.247Z,73.90
2022-07-29T00:59:09.134Z,74.79
2022-07-29T01:02:12.016Z,73.87
2022-07-29T01:05:17.479Z,74.00
2022-07-29T01:08:21.387Z,74.05
2022-07-29T01:11:24.757Z,73.42
2022-07-29T01:14:29.320Z,74.15
2022-07-29T01:18:27.950Z,73.38
2022-07-29T01:21:47.146Z,73.74
2022-07-29T01:25:09.036Z,73.36
2022-07-29T01:28:34.726Z,72.85
2022-07-29T01:31:58.554Z,72.75
2022-07-29T01:35:24.508Z,73.74
2022-07-29T01:38:29.953Z,73.63
2022-07-29T01:41:36.121Z,73.54
2022-07-29T01:44:49.417Z,73.01
2022-07-29T01:48:13.667Z,72.70
2022-07-29T01:51:22.869Z,73.13
2022-07-29T01:54:33.262Z,73.06
2022-07-29T01:57:39.727Z,74.29
2022-07-29T02:00:46.261Z,74.39
2022-07-29T02:03:50.632Z,75.10
2022-07-29T02:06:55.532Z,74.58
2022-07-29T02:09:59.757Z,75.45
2022-07-29T02:13:04.362Z,74.92
2022-07-29T02:16:09.499Z,75.55
2022-07-29T02:19:13.919Z,76.28
2022-07-29T02:22:19.495Z,75.17
2022-07-29T02:25:24.568Z,73.83
2022-07-29T02:28:30.499Z,75.93
2022-07-29T02:31:35.695Z,76.71
2022-07-29T02:34:39.960Z,76.99
2022-07-29T02:37:45.627Z,77.23
2022-07-29T02:40:51.455Z,78.29
2022-07-29T02:44:00.011Z,78.03
2022-07-29T02:47:23.178Z,78.21
2022-07-29T02:50:33.697Z,78.93
2022-07-29T02:53:39.550Z,78.96
2022-07-29T02:56:44.606Z,78.75
2022-07-29T02:59:51.041Z,76.45
2022-07-29T03:02:55.979Z,77.19
2022-07-29T03:06:02.097Z,79.16
2022-07-29T03:09:10.468Z,77.91
2022-07-29T03:12:17.117Z,77.35
2022-07-29T03:15:20.710Z,77.56
2022-07-29T03:18:26.973Z,78.19
2022-07-29T03:21:29.887Z,77.57
2022-07-29T03:24:35.301Z,77.85
2022-07-29T03:27:38.386Z,77.62
2022-07-29T03:30:41.493Z,77.86
2022-07-29T03:33:47.140Z,78.73
2022-07-29T03:36:50.683Z,78.53
2022-07-29T03:39:56.838Z,79.29
2022-07-29T03:43:02.118Z,78.71
2022-07-29T03:46:08.789Z,78.38
2022-07-29T03:49:13.194Z,78.66
2022-07-29T03:52:16.347Z,78.57
2022-07-29T03:55:19.368Z,78.23
2022-07-29T03:58:22.941Z,78.74
2022-07-29T04:01:27.312Z,77.91
2022-07-29T04:04:34.508Z,77.99
2022-07-29T04:07:37.153Z,78.15
2022-07-29T04:10:40.251Z,78.07
2022-07-29T04:13:43.171Z,78.04
2022-07-29T04:16:46.081Z,77.16
2022-07-29T04:19:48.767Z,77.25
2022-07-29T04:22:51.699Z,77.16
2022-07-29T04:25:54.388Z,77.66
2022-07-29T04:28:57.392Z,76.92
2022-07-29T04:32:00.056Z,77.51
2022-07-29T04:35:03.127Z,76.32
2022-07-29T04:38:06.910Z,77.96
2022-07-29T04:41:09.930Z,75.90
2022-07-29T04:44:14.227Z,75.57
2022-07-29T04:47:17.306Z,75.34
2022-07-29T04:50:20.021Z,76.48
2022-07-29T04:53:23.155Z,75.07
2022-07-29T04:56:25.982Z,69.10
2022-07-29T04:59:29.070Z,69.01
2022-07-29T05:02:31.822Z,68.86
2022-07-29T05:05:34.946Z,67.17
2022-07-29T05:08:38.004Z,67.32
2022-07-29T05:11:41.016Z,65.39
2022-07-29T05:14:43.813Z,65.04
2022-07-29T05:17:46.830Z,63.91
2022-07-29T05:20:49.451Z,62.26
2022-07-29T05:23:52.993Z,62.96
2022-07-29T05:26:55.658Z,61.51
2022-07-29T05:29:58.693Z,59.84
2022-07-29T05:33:01.388Z,60.07
2022-07-29T05:36:07.770Z,59.53
2022-07-29T05:39:10.822Z,58.17
2022-07-29T05:42:13.714Z,58.36
2022-07-29T05:45:16.347Z,57.16
2022-07-29T05:48:19.268Z,56.77
2022-07-29T05:51:22.054Z,56.26
2022-07-29T05:54:25.383Z,56.19
2022-07-29T05:57:28.081Z,57.16
2022-07-29T06:00:31.248Z,56.83
2022-07-29T06:03:35.688Z,54.46
2022-07-29T06:06:38.397Z,54.92
2022-07-29T06:09:41.409Z,54.87
2022-07-29T06:12:44.109Z,55.03
2022-07-29T06:15:47.514Z,54.08
2022-07-29T06:18:50.291Z,55.14
2022-07-29T06:21:53.235Z,52.69
2022-07-29T06:24:55.904Z,55.00
2022-07-29T06:27:59.178Z,52.15
2022-07-29T06:31:01.954Z,53.48
2022-07-29T06:34:05.399Z,52.64
2022-07-29T06:37:09.448Z,53.01
2022-07-29T06:40:37.938Z,52.11
2022-07-29T06:43:52.139Z,52.38
2022-07-29T06:46:58.176Z,51.34
2022-07-29T06:50:01.002Z,52.08
2022-07-29T06:53:04.484Z,51.36
2022-07-29T06:56:13.649Z,51.53
2022-07-29T06:59:16.612Z,51.18
2022-07-29T07:02:20.596Z,50.72
2022-07-29T07:05:26.072Z,49.77
2022-07-29T07:08:28.952Z,49.30
2022-07-29T07:11:31.942Z,48.75
2022-07-29T07:14:35.576Z,48.15
2022-07-29T07:17:38.770Z,44.82
2022-07-29T07:20:42.193Z,44.05
2022-07-29T07:23:45.120Z,43.42
2022-07-29T07:26:47.830Z,42.46
2022-07-29T07:29:50.919Z,46.75
2022-07-29T07:32:54.132Z,45.42
2022-07-29T07:35:57.107Z,43.05
2022-07-29T07:39:00.092Z,44.13
2022-07-29T07:42:03.281Z,44.75
2022-07-29T07:45:16.214Z,44.25
2022-07-29T07:48:19.851Z,46.18
2022-07-29T07:51:22.506Z,45.94
2022-07-29T07:54:25.470Z,47.52
2022-07-29T07:57:28.394Z,44.55
2022-07-29T08:00:31.358Z,45.28
2022-07-29T08:03:34.618Z,44.04
2022-07-29T08:06:40.627Z,43.17
2022-07-29T08:09:44.430Z,41.86
2022-07-29T08:12:47.115Z,42.49
2022-07-29T08:15:58.890Z,43.17
2022-07-29T08:19:01.890Z,43.10
2022-07-29T08:22:04.941Z,43.44
2022-07-29T08:25:07.983Z,41.48
2022-07-29T08:28:11.747Z,42.12
2022-07-29T08:31:15.060Z,41.55
2022-07-29T08:34:18.188Z,40.11
2022-07-29T08:37:21.419Z,40.38
2022-07-29T08:40:32.307Z,41.47
2022-07-29T08:43:38.423Z,39.79
2022-07-29T08:46:43.021Z,39.29
2022-07-29T08:49:48.081Z,39.57
2022-07-29T08:52:54.413Z,38.73
2022-07-29T08:55:59.702Z,39.63
2022-07-29T08:59:06.754Z,37.36
2022-07-29T09:02:20.267Z,38.50
2022-07-29T09:05:25.013Z,37.86
2022-07-29T09:08:29.178Z,36.18
2022-07-29T09:11:34.170Z,35.72
2022-07-29T09:14:36.936Z,37.08
2022-07-29T09:17:48.612Z,35.19
2022-07-29T09:21:12.119Z,35.97
2022-07-29T09:24:15.165Z,34.67
2022-07-29T09:27:23.630Z,34.67
2022-07-29T09:30:31.672Z,33.82
2022-07-29T09:33:36.687Z,34.18
2022-07-29T09:36:41.752Z,35.63
2022-07-29T09:39:47.235Z,33.66
2022-07-29T09:42:51.812Z,33.67
2022-07-29T09:45:55.293Z,32.47
2022-07-29T09:49:15.245Z,32.60
2022-07-29T09:52:18.011Z,33.98
2022-07-29T09:55:21.007Z,33.09
2022-07-29T09:58:24.094Z,31.60
2022-07-29T10:01:30.392Z,32.31
2022-07-29T10:04:41.994Z,32.65
2022-07-29T10:07:57.428Z,32.99
2022-07-29T10:11:20.057Z,31.31
2022-07-29T10:14:22.933Z,32.04
2022-07-29T10:17:25.909Z,33.97
2022-07-29T10:20:29.154Z,32.05
2022-07-29T10:23:46.458Z,32.59
2022-07-29T10:26:50.522Z,30.53
2022-07-29T10:29:55.027Z,32.48
2022-07-29T10:33:22.765Z,35.43
2022-07-29T10:36:48.692Z,32.18
2022-07-29T10:40:24.395Z,31.25
2022-07-29T10:43:37.052Z,31.01
2022-07-29T10:46:41.972Z,32.12
2022-07-29T10:50:01.441Z,31.07
2022-07-29T10:53:04.962Z,29.92
2022-07-29T10:56:32.009Z,29.99
2022-07-29T10:59:36.350Z,31.31
2022-07-29T11:02:43.943Z,30.44
2022-07-29T11:05:59.700Z,30.27
2022-07-29T11:09:25.573Z,29.77
2022-07-29T11:12:38.712Z,28.87
2022-07-29T11:15:56.336Z,29.77
2022-07-29T11:19:14.766Z,29.96
2022-07-29T11:22:42.991Z,29.97
2022-07-29T11:26:23.184Z,30.74
2022-07-29T11:29:27.484Z,29.51
2022-07-29T11:32:48.463Z,29.00
2022-07-29T11:36:16.872Z,28.01
2022-07-29T11:39:36.980Z,28.49
2022-07-29T11:46:05.904Z,28.86
2022-07-29T11:49:15.393Z,28.02
2022-07-29T11:52:20.180Z,28.22
2022-07-29T11:55:32.665Z,27.68
2022-07-29T11:58:38.330Z,29.03
2022-07-29T12:02:06.671Z,29.96
2022-07-29T12:05:36.472Z,28.94
2022-07-29T12:08:44.179Z,28.72
2022-07-29T12:11:48.516Z,29.04
2022-07-29T12:14:52.269Z,28.59
2022-07-29T12:17:56.141Z,28.30
2022-07-29T12:21:03.520Z,27.89
2022-07-29T12:24:09.509Z,28.58
2022-07-29T12:27:13.082Z,27.95
2022-07-29T12:30:17.770Z,28.39
2022-07-29T12:33:23.623Z,30.18
2022-07-29T12:36:26.623Z,27.61
2022-07-29T12:39:30.701Z,26.02
2022-07-29T12:42:34.327Z,26.48
2022-07-29T12:45:41.779Z,27.19
2022-07-29T12:48:44.940Z,29.56
2022-07-29T12:51:47.811Z,28.21
2022-07-29T12:54:51.363Z,28.99
2022-07-29T12:57:54.643Z,29.42
2022-07-29T13:01:17.380Z,29.66
2022-07-29T13:04:28.731Z,28.91
2022-07-29T13:07:54.287Z,28.60
2022-07-29T13:10:56.032Z,28.40
2022-07-29T13:14:06.873Z,29.32
2022-07-29T13:17:16.802Z,29.87
2022-07-29T13:20:24.519Z,30.21
2022-07-29T13:23:27.248Z,29.82
2022-07-29T13:26:30.251Z,30.26
2022-07-29T13:29:33.315Z,30.38
2022-07-29T13:32:40.392Z,31.00
2022-07-29T13:35:44.516Z,30.90
2022-07-29T13:38:47.598Z,30.93
2022-07-29T13:41:50.555Z,31.03
2022-07-29T13:44:54.262Z,30.62
2022-07-29T13:47:57.032Z,30.36
2022-07-29T13:51:00.580Z,29.56
2022-07-29T13:54:03.508Z,31.97
2022-07-29T13:57:06.602Z,33.50
2022-07-29T14:00:10.663Z,30.42
2022-07-29T14:03:13.747Z,31.58
2022-07-29T14:06:16.527Z,34.67
2022-07-29T14:09:21.587Z,34.33
2022-07-29T14:12:24.494Z,36.36
2022-07-29T14:15:27.455Z,36.00
2022-07-29T14:18:30.218Z,38.57
2022-07-29T14:21:33.975Z,36.50
2022-07-29T14:24:37.825Z,32.04
2022-07-29T14:27:40.860Z,31.90
2022-07-29T14:30:44.663Z,31.46
2022-07-29T14:33:49.430Z,29.06
2022-07-29T14:36:52.190Z,29.58
2022-07-29T14:40:00.407Z,29.05
2022-07-29T14:43:03.842Z,28.95
2022-07-29T14:46:11.215Z,28.68
2022-07-29T14:49:13.992Z,28.31
2022-07-29T14:52:17.058Z,28.71
2022-07-29T14:55:20.347Z,27.85
2022-07-29T14:58:23.777Z,29.01
2022-07-29T15:01:26.728Z,28.87
2022-07-29T15:04:29.931Z,26.45
2022-07-29T15:07:32.922Z,28.23
2022-07-29T15:10:36.235Z,27.87
2022-07-29T15:13:38.886Z,27.59
2022-07-29T15:16:44.043Z,28.14
2022-07-29T15:19:49.531Z,27.86
2022-07-29T15:22:52.551Z,27.70
2022-07-29T15:25:55.239Z,28.08
2022-07-29T15:28:58.363Z,27.75
2022-07-29T15:32:02.607Z,27.30
2022-07-29T15:35:06.336Z,26.86
2022-07-29T15:38:09.427Z,27.19
2022-07-29T15:41:15.448Z,26.68
2022-07-29T15:44:18.750Z,28.63
2022-07-29T15:47:21.930Z,27.46
2022-07-29T15:50:24.721Z,26.90
2022-07-29T15:53:27.819Z,27.97
2022-07-29T15:56:31.352Z,27.98
2022-07-29T15:59:34.895Z,27.33
2022-07-29T16:02:38.086Z,26.84
2022-07-29T16:05:41.367Z,27.34
2022-07-29T16:08:44.364Z,29.10
2022-07-29T16:11:50.796Z,27.73
2022-07-29T16:14:53.650Z,28.36
2022-07-29T16:17:56.803Z,28.00
2022-07-29T16:20:59.535Z,28.44
2022-07-29T16:24:03.459Z,28.36
2022-07-29T16:27:06.883Z,30.25
2022-07-29T16:30:10.305Z,28.03
2022-07-29T16:33:13.049Z,27.89
2022-07-29T16:36:18.819Z,28.86
2022-07-29T16:39:21.665Z,28.60
2022-07-29T16:42:44.447Z,28.72
2022-07-29T16:45:47.558Z,31.04
2022-07-29T16:48:50.646Z,29.34
2022-07-29T16:51:53.880Z,29.52
2022-07-29T16:54:56.875Z,30.08
2022-07-29T16:58:00.692Z,34.92
2022-07-29T17:01:04.079Z,30.93
2022-07-29T17:04:06.988Z,30.90
2022-07-29T17:07:10.034Z,31.19
2022-07-29T17:10:12.762Z,31.67
2022-07-29T17:13:15.816Z,29.42
2022-07-29T17:16:19.752Z,32.81
2022-07-29T17:19:22.845Z,31.25
2022-07-29T17:22:25.634Z,30.62
2022-07-29T17:25:28.655Z,30.46
2022-07-29T17:28:31.376Z,31.46
2022-07-29T17:31:34.433Z,31.93
2022-07-29T17:34:38.818Z,34.30
2022-07-29T17:37:41.778Z,37.41
2022-07-29T17:40:44.506Z,37.92
2022-07-29T17:43:48.662Z,39.20
2022-07-29T17:46:51.468Z,39.15
2022-07-29T17:49:54.766Z,39.10
2022-07-29T17:52:57.648Z,40.04
2022-07-29T17:56:00.775Z,41.42
2022-07-29T17:59:06.722Z,43.64
2022-07-29T18:02:10.110Z,44.01
2022-07-29T18:05:13.176Z,44.22
2022-07-29T18:08:19.854Z,44.19
2022-07-29T18:11:23.608Z,45.30
2022-07-29T18:14:26.539Z,45.07
2022-07-29T18:17:52.861Z,44.55
2022-07-29T18:20:52.521Z,42.83
2022-07-29T18:23:55.516Z,42.55
2022-07-29T18:26:58.476Z,45.48
2022-07-29T18:30:03.551Z,46.30
2022-07-29T18:33:22.757Z,42.83
2022-07-29T18:36:26.103Z,45.24
2022-07-29T18:39:29.019Z,46.18
2022-07-29T18:42:32.510Z,42.91
2022-07-29T18:45:35.619Z,43.38
2022-07-29T18:48:42.798Z,43.31
2022-07-29T18:51:45.731Z,43.15
2022-07-29T18:54:48.789Z,43.16
2022-07-29T18:57:55.132Z,43.50
2022-07-29T19:01:00.660Z,45.04
2022-07-29T19:04:04.547Z,48.44
2022-07-29T19:07:07.685Z,47.12
2022-07-29T19:10:11.303Z,49.34
2022-07-29T19:13:14.700Z,43.94
2022-07-29T19:16:18.499Z,46.10
2022-07-29T19:19:21.640Z,48.66
2022-07-29T19:22:24.759Z,49.53
2022-07-29T19:25:27.779Z,50.87
2022-07-29T19:28:30.734Z,50.60
2022-07-29T19:31:34.119Z,51.29
2022-07-29T19:34:37.478Z,53.05
2022-07-29T19:37:40.574Z,53.26
2022-07-29T19:40:43.668Z,52.32
2022-07-29T19:43:51.327Z,52.21
2022-07-29T19:46:55.667Z,52.84
2022-07-29T19:50:00.556Z,54.23
2022-07-29T19:53:03.292Z,54.46
2022-07-29T19:56:06.345Z,55.36
2022-07-29T19:59:11.893Z,54.45
2022-07-29T20:02:15.746Z,53.69
2022-07-29T20:05:19.285Z,54.75
2022-07-29T20:08:22.154Z,55.31
2022-07-29T20:11:26.469Z,55.28
2022-07-29T20:14:29.171Z,56.59
2022-07-29T20:17:32.253Z,56.11
2022-07-29T20:20:42.637Z,56.58
2022-07-29T20:23:46.093Z,55.10
2022-07-29T20:26:50.261Z,54.06
2022-07-29T20:29:53.321Z,53.47
2022-07-29T20:32:56.090Z,53.75
2022-07-29T20:35:59.056Z,53.66
2022-07-29T20:39:02.188Z,52.19
2022-07-29T20:42:05.951Z,53.11
2022-07-29T20:45:09.478Z,54.35
2022-07-29T20:48:13.920Z,53.99
2022-07-29T20:51:16.725Z,54.19
2022-07-29T20:54:19.854Z,52.53
2022-07-29T20:57:38.448Z,54.73
2022-07-29T21:00:42.682Z,55.30
2022-07-29T21:03:45.405Z,55.40
2022-07-29T21:06:48.394Z,57.39
2022-07-29T21:09:51.246Z,56.72
2022-07-29T21:12:54.309Z,53.87
2022-07-29T21:16:04.253Z,52.19
2022-07-29T21:19:09.372Z,51.77
2022-07-29T21:22:12.646Z,52.02
2022-07-29T21:25:15.839Z,50.65
2022-07-29T21:28:27.593Z,50.38
2022-07-29T21:31:30.615Z,51.21
2022-07-29T21:34:33.314Z,50.68
2022-07-29T21:37:36.268Z,51.84
2022-07-29T21:40:39.325Z,52.07
2022-07-29T21:43:46.478Z,51.01
2022-07-29T21:46:49.473Z,51.64
2022-07-29T21:49:53.056Z,52.37
2022-07-29T21:52:55.884Z,51.99
2022-07-29T21:55:58.940Z,52.78
2022-07-29T21:59:02.118Z,52.65
2022-07-29T22:02:05.105Z,52.77
2022-07-29T22:05:08.720Z,52.93
2022-07-29T22:08:11.578Z,53.10
2022-07-29T22:11:14.536Z,53.72
2022-07-29T22:14:18.396Z,53.87
2022-07-29T22:17:21.435Z,54.56
2022-07-29T22:20:24.309Z,54.05
2022-07-29T22:23:27.253Z,54.62
2022-07-29T22:26:29.956Z,55.23
2022-07-29T22:29:32.862Z,55.19
2022-07-29T22:32:35.755Z,55.44
2022-07-29T22:35:38.757Z,56.75
2022-07-29T22:38:41.498Z,57.58
2022-07-29T22:41:44.535Z,59.76
2022-07-29T22:44:47.138Z,60.36
2022-07-29T22:47:53.475Z,61.06
2022-07-29T22:51:01.703Z,62.08
2022-07-29T22:54:05.056Z,60.08
2022-07-29T22:57:07.743Z,62.17
2022-07-29T23:00:11.609Z,60.77
2022-07-29T23:03:14.382Z,61.28
2022-07-29T23:06:17.312Z,60.61
2022-07-29T23:09:20.034Z,61.98
2022-07-29T23:12:23.000Z,62.40
2022-07-29T23:15:25.945Z,63.07
2022-07-29T23:18:29.068Z,63.58
2022-07-29T23:21:31.712Z,62.72
2022-07-29T23:24:34.630Z,61.78
2022-07-29T23:27:37.340Z,63.46
2022-07-29T23:30:41.279Z,63.42
2022-07-29T23:33:43.976Z,62.77
2022-07-29T23:36:46.937Z,63.30
2022-07-29T23:39:49.632Z,63.14
2022-07-29T23:42:52.684Z,62.89
2022-07-29T23:45:56.362Z,62.30
2022-07-29T23:49:01.304Z,62.97
2022-07-29T23:52:04.198Z,63.76
2022-07-29T23:55:37.099Z,65.49
2022-07-29T23:58:30.282Z,65.44
